Time,TemperatureF,DewpointF,PressureIn,WindDirection,WindDirectionDegrees,WindSpeedMPH,WindSpeedGustMPH,Humidity,HourlyPrecipIn,Conditions,Clouds,dailyrainin,SoftwareType,DateUTC
2015-08-03 00:02:00,68.9,68.9,29.76,South,178,1.0,6.0,100,0.00,,CLR,0.00,VWS V14.01,2015-08-03 04:02:00,
2015-08-03 00:07:00,69.1,69.1,29.76,South,179,6.0,7.0,100,0.00,,CLR,0.00,VWS V14.01,2015-08-03 04:07:00,
2015-08-03 00:12:00,69.3,69.3,29.76,South,182,4.0,6.0,100,0.00,,CLR,0.00,VWS V14.01,2015-08-03 04:12:00,
2015-08-03 00:17:00,69.3,69.3,29.77,South,191,0.0,5.0,100,0.00,,CLR,0.00,VWS V14.01,2015-08-03 04:17:00,
2015-08-03 00:22:00,69.1,69.1,29.77,South,191,4.0,5.0,100,0.00,,CLR,0.00,VWS V14.01,2015-08-03 04:22:00,
2015-08-03 00:27:00,69.1,69.1,29.77,South,190,2.0,6.0,100,0.00,,CLR,0.00,VWS V14.01,2015-08-03 04:27:00,
2015-08-03 00:32:00,69.1,69.1,29.77,South,190,1.0,2.0,100,0.00,,CLR,0.00,VWS V14.01,2015-08-03 04:32:00,
2015-08-03 00:37:00,68.9,68.9,29.77,South,188,4.0,4.0,100,0.00,,CLR,0.00,VWS V14.01,2015-08-03 04:37:00,
2015-08-03 00:42:00,68.8,68.8,29.77,South,190,3.0,5.0,100,0.00,,CLR,0.00,VWS V14.01,2015-08-03 04:42:00,
2015-08-03 00:47:00,68.8,68.8,29.77,South,190,2.0,2.0,100,0.00,,CLR,0.00,VWS V14.01,2015-08-03 04:47:00,
2015-08-03 00:52:00,68.6,68.6,29.77,South,190,0.0,0.0,100,0.00,,CLR,0.00,VWS V14.01,2015-08-03 04:52:00,
2015-08-03 00:57:00,68.3,68.3,29.77,South,190,0.0,0.0,100,0.00,,CLR,0.00,VWS V14.01,2015-08-03 04:57:00,
2015-08-03 01:06:00,67.9,67.9,29.77,South,190,0.0,1.0,100,0.00,,CLR,0.00,VWS V14.01,2015-08-03 05:06:00,
2015-08-03 01:11:00,67.8,67.8,29.77,South,190,0.0,0.0,100,0.00,,CLR,0.00,VWS V14.01,2015-08-03 05:11:00,
2015-08-03 01:16:00,67.4,67.4,29.76,South,190,0.0,0.0,100,0.00,,CLR,0.00,VWS V14.01,2015-08-03 05:16:00,
2015-08-03 01:21:00,67.1,67.1,29.76,South,189,0.0,0.0,100,0.00,,CLR,0.00,VWS V14.01,2015-08-03 05:21:00,
2015-08-03 01:26:00,66.8,66.8,29.76,South,190,0.0,0.0,100,0.00,,CLR,0.00,VWS V14.01,2015-08-03 05:26:00,
2015-08-03 01:31:00,66.4,66.4,29.76,South,190,2.0,2.0,100,0.00,,CLR,0.00,VWS V14.01,2015-08-03 05:31:00,
2015-08-03 01:36:00,66.1,66.1,29.76,South,189,2.0,2.0,100,0.00,,CLR,0.00,VWS V14.01,2015-08-03 05:36:00,
2015-08-03 01:41:00,65.8,65.8,29.76,South,190,1.0,2.0,100,0.00,,CLR,0.00,VWS V14.01,2015-08-03 05:41:00,
2015-08-03 01:46:00,65.5,65.5,29.76,South,190,2.0,2.0,100,0.00,,CLR,0.00,VWS V14.01,2015-08-03 05:46:00,
2015-08-03 01:51:00,65.3,65.3,29.76,South,189,0.0,0.0,100,0.00,,CLR,0.00,VWS V14.01,2015-08-03 05:51:00,
2015-08-03 01:56:00,65.0,65.0,29.76,South,190,0.0,0.0,100,0.00,,CLR,0.00,VWS V14.01,2015-08-03 05:56:00,
2015-08-03 02:01:00,64.7,64.7,29.76,South,190,0.0,0.0,100,0.00,,CLR,0.00,VWS V14.01,2015-08-03 06:01:00,
2015-08-03 02:06:00,64.7,64.7,29.76,South,190,2.0,2.0,100,0.00,,CLR,0.00,VWS V14.01,2015-08-03 06:06:00,
2015-08-03 02:11:00,64.8,64.8,29.76,South,190,0.0,1.0,100,0.00,,CLR,0.00,VWS V14.01,2015-08-03 06:11:00,
2015-08-03 02:16:00,65.0,65.0,29.75,South,190,0.0,0.0,100,0.00,,CLR,0.00,VWS V14.01,2015-08-03 06:16:00,
2015-08-03 02:21:00,64.5,64.5,29.75,South,190,0.0,0.0,100,0.00,,CLR,0.00,VWS V14.01,2015-08-03 06:21:00,
2015-08-03 02:26:00,64.2,64.2,29.75,South,189,0.0,0.0,100,0.00,,CLR,0.00,VWS V14.01,2015-08-03 06:26:00,
2015-08-03 02:31:00,63.9,63.9,29.75,South,190,0.0,0.0,100,0.00,,CLR,0.00,VWS V14.01,2015-08-03 06:31:00,
2015-08-03 02:37:00,63.7,63.7,29.75,South,190,0.0,0.0,100,0.00,,CLR,0.00,VWS V14.01,2015-08-03 06:37:00,
2015-08-03 02:42:00,63.7,63.7,29.75,South,190,0.0,0.0,100,0.00,,CLR,0.00,VWS V14.01,2015-08-03 06:42:00,
2015-08-03 02:47:00,63.9,63.9,29.75,South,190,0.0,0.0,100,0.00,,CLR,0.00,VWS V14.01,2015-08-03 06:47:00,
2015-08-03 02:52:00,64.2,64.2,29.75,South,189,2.0,2.0,100,0.00,,CLR,0.00,VWS V14.01,2015-08-03 06:52:00,
2015-08-03 02:57:00,64.2,64.2,29.75,South,190,0.0,1.0,100,0.00,,CLR,0.00,VWS V14.01,2015-08-03 06:57:00,
2015-08-03 03:02:00,64.0,64.0,29.75,South,189,0.0,0.0,100,0.00,,CLR,0.00,VWS V14.01,2015-08-03 07:02:00,
2015-08-03 03:07:00,63.9,63.9,29.75,South,189,0.0,0.0,100,0.00,,CLR,0.00,VWS V14.01,2015-08-03 07:07:00,
2015-08-03 03:12:00,64.0,64.0,29.75,South,190,0.0,0.0,100,0.00,,CLR,0.00,VWS V14.01,2015-08-03 07:12:00,
2015-08-03 03:17:00,63.7,63.7,29.75,South,190,0.0,0.0,100,0.00,,CLR,0.00,VWS V14.01,2015-08-03 07:17:00,
2015-08-03 03:22:00,63.5,63.5,29.75,South,190,0.0,0.0,100,0.00,,CLR,0.00,VWS V14.01,2015-08-03 07:22:00,
2015-08-03 03:27:00,63.4,63.4,29.75,South,190,0.0,0.0,100,0.00,,CLR,0.00,VWS V14.01,2015-08-03 07:27:00,
2015-08-03 03:32:00,63.2,63.2,29.74,South,190,0.0,0.0,100,0.00,,CLR,0.00,VWS V14.01,2015-08-03 07:32:00,
2015-08-03 03:37:00,63.1,63.1,29.74,South,190,0.0,0.0,100,0.00,,CLR,0.00,VWS V14.01,2015-08-03 07:37:00,
2015-08-03 03:42:00,63.1,63.1,29.74,South,189,0.0,0.0,100,0.00,,CLR,0.00,VWS V14.01,2015-08-03 07:42:00,
2015-08-03 03:47:00,62.9,62.9,29.74,South,190,0.0,0.0,100,0.00,,CLR,0.00,VWS V14.01,2015-08-03 07:47:00,
2015-08-03 03:52:00,62.9,62.9,29.74,South,190,0.0,0.0,100,0.00,,CLR,0.00,VWS V14.01,2015-08-03 07:52:00,
2015-08-03 03:57:00,62.7,62.7,29.74,South,190,0.0,0.0,100,0.00,,CLR,0.00,VWS V14.01,2015-08-03 07:57:00,
2015-08-03 04:02:00,62.9,62.9,29.74,South,189,0.0,0.0,100,0.00,,CLR,0.00,VWS V14.01,2015-08-03 08:02:00,
2015-08-03 04:07:00,62.9,62.9,29.74,South,190,0.0,0.0,100,0.00,,CLR,0.00,VWS V14.01,2015-08-03 08:07:00,
2015-08-03 04:12:00,62.6,62.6,29.74,South,190,0.0,0.0,100,0.00,,CLR,0.00,VWS V14.01,2015-08-03 08:12:00,
2015-08-03 04:17:00,62.6,62.6,29.73,South,190,0.0,0.0,100,0.00,,CLR,0.00,VWS V14.01,2015-08-03 08:17:00,
2015-08-03 04:22:00,62.3,62.3,29.73,South,189,0.0,0.0,100,0.00,,CLR,0.00,VWS V14.01,2015-08-03 08:22:00,
2015-08-03 04:27:00,62.0,62.0,29.73,South,189,0.0,0.0,100,0.00,,CLR,0.00,VWS V14.01,2015-08-03 08:27:00,
2015-08-03 04:32:00,61.6,61.6,29.73,South,189,0.0,0.0,100,0.00,,CLR,0.00,VWS V14.01,2015-08-03 08:32:00,
2015-08-03 04:37:00,61.6,61.6,29.73,South,189,0.0,0.0,100,0.00,,CLR,0.00,VWS V14.01,2015-08-03 08:37:00,
2015-08-03 04:42:00,61.6,61.6,29.73,South,190,0.0,0.0,100,0.00,,CLR,0.00,VWS V14.01,2015-08-03 08:42:00,
2015-08-03 04:47:00,61.6,61.6,29.74,South,190,0.0,0.0,100,0.00,,CLR,0.00,VWS V14.01,2015-08-03 08:47:00,
2015-08-03 04:52:00,61.8,61.8,29.74,South,189,0.0,0.0,100,0.00,,CLR,0.00,VWS V14.01,2015-08-03 08:52:00,
2015-08-03 04:57:00,61.6,61.6,29.74,South,190,0.0,0.0,100,0.00,,CLR,0.00,VWS V14.01,2015-08-03 08:57:00,
2015-08-03 05:02:00,61.3,61.3,29.74,South,190,0.0,0.0,100,0.00,,CLR,0.00,VWS V14.01,2015-08-03 09:02:00,
2015-08-03 05:07:00,61.3,61.3,29.74,South,190,0.0,0.0,100,0.00,,CLR,0.00,VWS V14.01,2015-08-03 09:07:00,
2015-08-03 05:12:00,61.5,61.5,29.74,South,190,0.0,0.0,100,0.00,,CLR,0.00,VWS V14.01,2015-08-03 09:12:00,
2015-08-03 05:17:00,61.5,61.5,29.74,South,190,0.0,0.0,100,0.00,,CLR,0.00,VWS V14.01,2015-08-03 09:17:00,
2015-08-03 05:22:00,61.3,61.3,29.74,South,189,0.0,0.0,100,0.00,,CLR,0.00,VWS V14.01,2015-08-03 09:22:00,
2015-08-03 05:28:00,60.9,60.9,29.74,South,189,0.0,0.0,100,0.00,,CLR,0.00,VWS V14.01,2015-08-03 09:28:00,
2015-08-03 05:33:00,60.7,60.7,29.74,South,190,0.0,0.0,100,0.00,,CLR,0.00,VWS V14.01,2015-08-03 09:33:00,
2015-08-03 05:38:00,60.5,60.5,29.74,South,190,0.0,0.0,100,0.00,,CLR,0.00,VWS V14.01,2015-08-03 09:38:00,
2015-08-03 05:43:00,60.5,60.5,29.74,South,189,0.0,0.0,100,0.00,,CLR,0.00,VWS V14.01,2015-08-03 09:43:00,
2015-08-03 05:48:00,60.4,60.4,29.74,South,189,0.0,0.0,100,0.00,,CLR,0.00,VWS V14.01,2015-08-03 09:48:00,
2015-08-03 05:53:00,60.4,60.4,29.74,SSE,166,0.0,1.0,100,0.00,,CLR,0.00,VWS V14.01,2015-08-03 09:53:00,
2015-08-03 05:58:00,60.2,60.2,29.74,SSE,166,0.0,0.0,100,0.00,,CLR,0.00,VWS V14.01,2015-08-03 09:58:00,
2015-08-03 06:03:00,60.2,60.2,29.75,SSE,166,0.0,0.0,100,0.00,,CLR,0.00,VWS V14.01,2015-08-03 10:03:00,
2015-08-03 06:08:00,60.4,60.4,29.75,SSE,166,0.0,0.0,100,0.00,,CLR,0.00,VWS V14.01,2015-08-03 10:08:00,
2015-08-03 06:13:00,60.5,60.5,29.75,SSE,166,0.0,0.0,100,0.00,,CLR,0.00,VWS V14.01,2015-08-03 10:13:00,
2015-08-03 06:18:00,60.5,60.5,29.76,SSE,167,2.0,2.0,100,0.00,,CLR,0.00,VWS V14.01,2015-08-03 10:18:00,
2015-08-03 06:23:00,60.9,60.9,29.76,SSE,166,0.0,0.0,100,0.00,,CLR,0.00,VWS V14.01,2015-08-03 10:23:00,
2015-08-03 06:28:00,60.9,60.9,29.76,SSE,166,0.0,0.0,100,0.00,,CLR,0.00,VWS V14.01,2015-08-03 10:28:00,
2015-08-03 06:33:00,61.0,61.0,29.76,SSE,167,0.0,0.0,100,0.00,,CLR,0.00,VWS V14.01,2015-08-03 10:33:00,
2015-08-03 06:38:00,61.3,61.3,29.76,SSE,167,1.0,2.0,100,0.00,,CLR,0.00,VWS V14.01,2015-08-03 10:38:00,
2015-08-03 06:43:00,62.1,62.1,29.76,SSE,166,0.0,0.0,100,0.00,,CLR,0.00,VWS V14.01,2015-08-03 10:43:00,
2015-08-03 06:48:00,62.1,62.1,29.76,SSE,167,0.0,0.0,100,0.00,,CLR,0.00,VWS V14.01,2015-08-03 10:48:00,
2015-08-03 06:53:00,62.7,62.7,29.76,SSE,167,1.0,2.0,100,0.00,,CLR,0.00,VWS V14.01,2015-08-03 10:53:00,
2015-08-03 06:58:00,63.4,63.4,29.76,SSE,167,0.0,2.0,100,0.00,,CLR,0.00,VWS V14.01,2015-08-03 10:58:00,
2015-08-03 07:03:00,64.2,64.2,29.76,SSE,167,2.0,2.0,100,0.00,,CLR,0.00,VWS V14.01,2015-08-03 11:03:00,
2015-08-03 07:08:00,65.2,65.2,29.76,ESE,122,2.0,4.0,100,0.00,,CLR,0.00,VWS V14.01,2015-08-03 11:08:00,
2015-08-03 07:13:00,66.1,66.1,29.76,ESE,122,0.0,0.0,100,0.00,,CLR,0.00,VWS V14.01,2015-08-03 11:13:00,
2015-08-03 07:18:00,66.6,66.6,29.75,ESE,122,0.0,0.0,100,0.00,,CLR,0.00,VWS V14.01,2015-08-03 11:18:00,
2015-08-03 07:23:00,66.9,66.9,29.75,ESE,122,0.0,0.0,100,0.00,,CLR,0.00,VWS V14.01,2015-08-03 11:23:00,
2015-08-03 07:28:00,67.4,67.4,29.75,SE,127,1.0,5.0,100,0.00,,CLR,0.00,VWS V14.01,2015-08-03 11:28:00,
2015-08-03 07:33:00,67.9,67.9,29.75,SE,128,0.0,0.0,100,0.00,,CLR,0.00,VWS V14.01,2015-08-03 11:33:00,
2015-08-03 07:38:00,68.6,68.6,29.75,SSW,193,3.0,6.0,100,0.00,,CLR,0.00,VWS V14.01,2015-08-03 11:38:00,
2015-08-03 07:43:00,69.1,69.1,29.75,SSW,193,1.0,4.0,100,0.00,,FEW007,0.00,VWS V14.01,2015-08-03 11:43:00,
2015-08-03 07:48:00,69.6,69.6,29.75,SSW,195,3.0,5.0,100,0.00,,FEW007,0.00,VWS V14.01,2015-08-03 11:48:00,
2015-08-03 07:53:00,69.9,69.9,29.75,SSW,205,6.0,7.0,100,0.00,,FEW007,0.00,VWS V14.01,2015-08-03 11:53:00,
2015-08-03 07:58:00,70.3,70.3,29.75,SSW,202,4.0,4.0,100,0.00,,FEW007,0.00,VWS V14.01,2015-08-03 11:58:00,
2015-08-03 08:03:00,70.6,70.6,29.75,SSW,203,4.0,4.0,100,0.00,,FEW007,0.00,VWS V14.01,2015-08-03 12:03:00,
2015-08-03 08:08:00,70.9,70.9,29.75,SSW,209,2.0,6.0,100,0.00,,FEW007,0.00,VWS V14.01,2015-08-03 12:08:00,
2015-08-03 08:13:00,71.3,71.3,29.75,SSW,210,7.0,13.0,100,0.00,,FEW007,0.00,VWS V14.01,2015-08-03 12:13:00,
2015-08-03 08:18:00,72.0,72.0,29.75,SSW,200,5.0,7.0,100,0.00,,FEW007,0.00,VWS V14.01,2015-08-03 12:18:00,
2015-08-03 08:24:00,72.1,72.1,29.75,SSW,203,6.0,9.0,100,0.00,,FEW007,0.00,VWS V14.01,2015-08-03 12:24:00,
2015-08-03 08:29:00,72.7,72.7,29.75,SW,214,7.0,8.0,100,0.00,,FEW007,0.00,VWS V14.01,2015-08-03 12:29:00,
2015-08-03 08:34:00,73.0,73.0,29.75,SSW,204,5.0,9.0,100,0.00,,FEW007,0.00,VWS V14.01,2015-08-03 12:34:00,
2015-08-03 08:39:00,73.5,73.5,29.75,SSW,213,10.0,10.0,100,0.00,,FEW007,0.00,VWS V14.01,2015-08-03 12:39:00,
2015-08-03 08:44:00,73.9,73.9,29.75,SSW,198,6.0,7.0,100,0.00,,CLR,0.00,VWS V14.01,2015-08-03 12:44:00,
2015-08-03 08:49:00,74.2,74.2,29.75,SSW,212,5.0,9.0,100,0.00,,CLR,0.00,VWS V14.01,2015-08-03 12:49:00,
2015-08-03 08:54:00,74.6,74.6,29.75,WSW,237,13.0,13.0,100,0.00,,CLR,0.00,VWS V14.01,2015-08-03 12:54:00,
2015-08-03 08:59:00,75.1,75.1,29.75,SW,218,7.0,12.0,100,0.00,,CLR,0.00,VWS V14.01,2015-08-03 12:59:00,
2015-08-03 09:04:00,75.4,75.4,29.75,South,179,8.0,8.0,100,0.00,,CLR,0.00,VWS V14.01,2015-08-03 13:04:00,
2015-08-03 09:09:00,75.6,75.6,29.75,South,185,6.0,11.0,100,0.00,,CLR,0.00,VWS V14.01,2015-08-03 13:09:00,
2015-08-03 09:14:00,76.1,76.1,29.75,SW,214,4.0,8.0,100,0.00,,CLR,0.00,VWS V14.01,2015-08-03 13:14:00,
2015-08-03 09:19:00,76.5,76.5,29.74,SW,235,8.0,14.0,100,0.00,,CLR,0.00,VWS V14.01,2015-08-03 13:19:00,
2015-08-03 09:24:00,76.7,76.7,29.74,SSW,196,14.0,18.0,100,0.00,,CLR,0.00,VWS V14.01,2015-08-03 13:24:00,
2015-08-03 09:29:00,77.0,77.0,29.74,SW,222,8.0,9.0,100,0.00,,CLR,0.00,VWS V14.01,2015-08-03 13:29:00,
2015-08-03 09:34:00,77.7,77.7,29.74,SW,217,19.0,19.0,100,0.00,,CLR,0.00,VWS V14.01,2015-08-03 13:34:00,
2015-08-03 09:39:00,78.1,78.1,29.74,South,191,10.0,10.0,100,0.00,,CLR,0.00,VWS V14.01,2015-08-03 13:39:00,
2015-08-03 09:44:00,78.1,78.1,29.74,SW,218,7.0,12.0,100,0.00,,CLR,0.00,VWS V14.01,2015-08-03 13:44:00,
2015-08-03 09:49:00,78.5,78.5,29.74,South,179,7.0,10.0,100,0.00,,CLR,0.00,VWS V14.01,2015-08-03 13:49:00,
2015-08-03 09:54:00,79.0,79.0,29.74,South,189,7.0,10.0,100,0.00,,CLR,0.00,VWS V14.01,2015-08-03 13:54:00,
2015-08-03 09:59:00,79.0,79.0,29.74,WSW,252,9.0,13.0,100,0.00,,CLR,0.00,VWS V14.01,2015-08-03 13:59:00,
2015-08-03 10:04:00,79.4,79.4,29.74,SSW,210,11.0,11.0,100,0.00,,CLR,0.00,VWS V14.01,2015-08-03 14:04:00,
2015-08-03 10:09:00,79.8,79.8,29.74,SW,216,5.0,9.0,100,0.00,,CLR,0.00,VWS V14.01,2015-08-03 14:09:00,
2015-08-03 10:14:00,79.9,79.9,29.74,SW,236,8.0,12.0,100,0.00,,CLR,0.00,VWS V14.01,2015-08-03 14:14:00,
2015-08-03 10:19:00,80.3,80.3,29.73,South,175,7.0,11.0,100,0.00,,CLR,0.00,VWS V14.01,2015-08-03 14:19:00,
2015-08-03 10:24:00,80.5,80.5,29.73,SSW,212,7.0,10.0,100,0.00,,CLR,0.00,VWS V14.01,2015-08-03 14:24:00,
2015-08-03 10:29:00,80.7,80.7,29.73,SW,228,10.0,13.0,100,0.00,,CLR,0.00,VWS V14.01,2015-08-03 14:29:00,
2015-08-03 10:34:00,80.9,80.9,29.73,SW,229,23.0,23.0,100,0.00,,CLR,0.00,VWS V14.01,2015-08-03 14:34:00,
2015-08-03 10:39:00,80.9,80.9,29.73,SSW,207,12.0,16.0,100,0.00,,CLR,0.00,VWS V14.01,2015-08-03 14:39:00,
2015-08-03 10:44:00,81.2,81.2,29.73,SW,227,10.0,16.0,100,0.00,,CLR,0.00,VWS V14.01,2015-08-03 14:44:00,
2015-08-03 10:49:00,81.4,81.4,29.72,SSW,198,10.0,13.0,100,0.00,,CLR,0.00,VWS V14.01,2015-08-03 14:49:00,
2015-08-03 10:54:00,81.6,81.6,29.72,SW,217,6.0,18.0,100,0.00,,CLR,0.00,VWS V14.01,2015-08-03 14:54:00,
2015-08-03 10:59:00,82.4,82.4,29.72,WSW,252,15.0,15.0,100,0.00,,CLR,0.00,VWS V14.01,2015-08-03 14:59:00,
2015-08-03 11:04:00,82.4,82.4,29.73,SSW,192,10.0,16.0,100,0.00,,CLR,0.00,VWS V14.01,2015-08-03 15:04:00,
2015-08-03 11:09:00,82.6,82.6,29.73,WSW,255,11.0,13.0,100,0.00,,CLR,0.00,VWS V14.01,2015-08-03 15:09:00,
2015-08-03 11:15:00,82.8,82.8,29.73,SW,215,9.0,20.0,100,0.00,,CLR,0.00,VWS V14.01,2015-08-03 15:15:00,
2015-08-03 11:20:00,82.6,82.6,29.72,SSW,200,9.0,11.0,100,0.00,,CLR,0.00,VWS V14.01,2015-08-03 15:20:00,
2015-08-03 11:25:00,82.4,82.4,29.72,SW,232,20.0,23.0,100,0.00,,CLR,0.00,VWS V14.01,2015-08-03 15:25:00,
2015-08-03 11:30:00,82.8,82.8,29.72,WSW,250,9.0,16.0,100,0.00,,CLR,0.00,VWS V14.01,2015-08-03 15:30:00,
2015-08-03 11:35:00,83.2,83.2,29.72,SW,231,19.0,22.0,100,0.00,,CLR,0.00,VWS V14.01,2015-08-03 15:35:00,
2015-08-03 11:40:00,83.4,83.4,29.72,SW,214,5.0,12.0,100,0.00,,CLR,0.00,VWS V14.01,2015-08-03 15:40:00,
2015-08-03 11:45:00,83.2,83.2,29.72,SSW,204,11.0,14.0,100,0.00,,CLR,0.00,VWS V14.01,2015-08-03 15:45:00,
2015-08-03 11:50:00,83.4,83.4,29.72,SW,229,11.0,21.0,100,0.00,,CLR,0.00,VWS V14.01,2015-08-03 15:50:00,
2015-08-03 11:55:00,83.4,83.4,29.72,SW,231,14.0,25.0,100,0.00,,CLR,0.00,VWS V14.01,2015-08-03 15:55:00,
2015-08-03 12:00:00,83.6,83.6,29.72,WSW,238,13.0,15.0,100,0.00,,CLR,0.00,VWS V14.01,2015-08-03 16:00:00,
2015-08-03 12:05:00,84.1,84.1,29.72,SSW,203,13.0,13.0,100,0.00,,CLR,0.00,VWS V14.01,2015-08-03 16:05:00,
2015-08-03 12:15:00,84.1,84.1,29.72,SSW,203,23.0,24.0,100,0.00,,CLR,0.00,VWS V14.01,2015-08-03 16:15:00,
2015-08-03 12:20:00,84.0,84.0,29.72,SSW,205,15.0,20.0,100,0.00,,CLR,0.00,VWS V14.01,2015-08-03 16:20:00,
2015-08-03 12:25:00,84.1,84.1,29.72,South,191,8.0,15.0,100,0.00,,CLR,0.00,VWS V14.01,2015-08-03 16:25:00,
2015-08-03 12:30:00,84.5,84.5,29.72,SSW,203,15.0,15.0,100,0.00,,CLR,0.00,VWS V14.01,2015-08-03 16:30:00,
2015-08-03 12:35:00,84.5,84.5,29.71,SSW,206,18.0,23.0,100,0.00,,CLR,0.00,VWS V14.01,2015-08-03 16:35:00,
2015-08-03 12:40:00,84.1,84.1,29.71,SW,226,29.0,29.0,100,0.00,,CLR,0.00,VWS V14.01,2015-08-03 16:40:00,
2015-08-03 12:45:00,84.5,84.5,29.71,SW,217,13.0,15.0,100,0.00,,CLR,0.00,VWS V14.01,2015-08-03 16:45:00,
2015-08-03 12:50:00,84.9,84.9,29.71,SSW,212,18.0,20.0,100,0.00,,CLR,0.00,VWS V14.01,2015-08-03 16:50:00,
2015-08-03 12:55:00,85.1,85.1,29.71,SSW,211,16.0,19.0,100,0.00,,CLR,0.00,VWS V14.01,2015-08-03 16:55:00,
2015-08-03 13:00:00,84.9,84.9,29.70,WSW,248,18.0,21.0,100,0.00,,CLR,0.00,VWS V14.01,2015-08-03 17:00:00,
2015-08-03 13:05:00,85.3,85.3,29.70,SW,224,8.0,12.0,100,0.00,,CLR,0.00,VWS V14.01,2015-08-03 17:05:00,
2015-08-03 13:10:00,85.7,85.7,29.70,SSE,167,10.0,12.0,100,0.00,,CLR,0.00,VWS V14.01,2015-08-03 17:10:00,
2015-08-03 13:15:00,85.3,85.3,29.70,SW,214,13.0,14.0,100,0.00,,CLR,0.00,VWS V14.01,2015-08-03 17:15:00,
2015-08-03 13:20:00,85.1,85.1,29.70,WSW,246,18.0,18.0,100,0.00,,CLR,0.00,VWS V14.01,2015-08-03 17:20:00,
2015-08-03 13:25:00,85.1,85.1,29.70,SW,217,16.0,19.0,100,0.00,,CLR,0.00,VWS V14.01,2015-08-03 17:25:00,
2015-08-03 13:30:00,85.7,85.7,29.69,South,184,12.0,18.0,100,0.00,,CLR,0.00,VWS V14.01,2015-08-03 17:30:00,
2015-08-03 13:35:00,85.5,85.5,29.69,SW,217,13.0,20.0,100,0.00,,CLR,0.00,VWS V14.01,2015-08-03 17:35:00,
2015-08-03 13:40:00,85.5,85.5,29.69,WSW,238,9.0,14.0,100,0.00,,CLR,0.00,VWS V14.01,2015-08-03 17:40:00,
2015-08-03 13:45:00,85.5,85.5,29.69,SSW,204,12.0,18.0,100,0.00,,CLR,0.00,VWS V14.01,2015-08-03 17:45:00,
2015-08-03 13:50:00,85.5,85.5,29.69,SW,223,15.0,19.0,100,0.00,,SCT060,0.00,VWS V14.01,2015-08-03 17:50:00,
2015-08-03 13:56:00,85.7,85.7,29.69,SSW,203,10.0,12.0,100,0.00,,SCT060,0.00,VWS V14.01,2015-08-03 17:56:00,
2015-08-03 14:01:00,85.9,85.9,29.69,South,182,11.0,11.0,100,0.00,,SCT060,0.00,VWS V14.01,2015-08-03 18:01:00,
2015-08-03 14:06:00,86.3,86.3,29.69,SW,231,16.0,20.0,100,0.00,,SCT060,0.00,VWS V14.01,2015-08-03 18:06:00,
2015-08-03 14:11:00,86.1,86.1,29.69,SSW,193,21.0,21.0,100,0.00,,SCT060,0.00,VWS V14.01,2015-08-03 18:11:00,
2015-08-03 14:16:00,85.9,85.9,29.69,SW,220,20.0,21.0,100,0.00,,SCT060,0.00,VWS V14.01,2015-08-03 18:16:00,
2015-08-03 14:21:00,85.7,85.7,29.69,SW,227,16.0,20.0,100,0.00,,SCT060,0.00,VWS V14.01,2015-08-03 18:21:00,
2015-08-03 14:26:00,85.9,85.9,29.69,SW,234,13.0,22.0,100,0.00,,SCT060,0.00,VWS V14.01,2015-08-03 18:26:00,
2015-08-03 14:31:00,85.9,85.9,29.69,WSW,240,9.0,18.0,100,0.00,,SCT060,0.00,VWS V14.01,2015-08-03 18:31:00,
2015-08-03 14:36:00,86.1,86.1,29.69,SW,230,11.0,18.0,100,0.00,,SCT060,0.00,VWS V14.01,2015-08-03 18:36:00,
2015-08-03 14:41:00,85.9,85.9,29.69,SSW,213,15.0,22.0,100,0.00,,SCT060,0.00,VWS V14.01,2015-08-03 18:41:00,
2015-08-03 14:46:00,85.5,85.5,29.69,SSW,203,10.0,19.0,100,0.00,,SCT060,0.00,VWS V14.01,2015-08-03 18:46:00,
2015-08-03 14:51:00,85.7,85.7,29.69,SSW,198,10.0,15.0,100,0.00,,SCT060,0.00,VWS V14.01,2015-08-03 18:51:00,
2015-08-03 14:56:00,86.1,86.1,29.69,SW,231,13.0,19.0,100,0.00,,SCT060,0.00,VWS V14.01,2015-08-03 18:56:00,
2015-08-03 15:01:00,86.1,86.1,29.69,SSW,206,10.0,12.0,100,0.00,,SCT060,0.00,VWS V14.01,2015-08-03 19:01:00,
2015-08-03 15:06:00,86.3,86.3,29.69,SSW,213,7.0,14.0,100,0.00,,SCT060,0.00,VWS V14.01,2015-08-03 19:06:00,
2015-08-03 15:11:00,86.3,86.3,29.69,SSW,207,10.0,16.0,100,0.00,,SCT060,0.00,VWS V14.01,2015-08-03 19:11:00,
2015-08-03 15:16:00,86.5,86.5,29.68,SSW,212,12.0,15.0,100,0.00,,SCT060,0.00,VWS V14.01,2015-08-03 19:16:00,
2015-08-03 15:21:00,85.9,85.9,29.68,SSW,212,11.0,14.0,100,0.00,,SCT060,0.00,VWS V14.01,2015-08-03 19:21:00,
2015-08-03 15:26:00,86.1,86.1,29.68,SSE,160,5.0,9.0,100,0.00,,SCT060,0.00,VWS V14.01,2015-08-03 19:26:00,
2015-08-03 15:31:00,86.3,86.3,29.67,SSW,203,9.0,18.0,100,0.00,,SCT060,0.00,VWS V14.01,2015-08-03 19:31:00,
2015-08-03 15:36:00,86.1,86.1,29.67,South,190,7.0,10.0,100,0.00,,SCT060,0.00,VWS V14.01,2015-08-03 19:36:00,
2015-08-03 15:41:00,85.9,85.9,29.67,South,186,9.0,21.0,100,0.00,,SCT060,0.00,VWS V14.01,2015-08-03 19:41:00,
2015-08-03 15:46:00,86.1,86.1,29.66,South,178,8.0,11.0,100,0.00,,SCT060,0.00,VWS V14.01,2015-08-03 19:46:00,
2015-08-03 15:51:00,86.1,86.1,29.66,SSE,165,6.0,13.0,100,0.00,,SCT060,0.00,VWS V14.01,2015-08-03 19:51:00,
2015-08-03 15:56:00,86.5,86.5,29.66,SSW,212,12.0,14.0,100,0.00,,SCT060,0.00,VWS V14.01,2015-08-03 19:56:00,
2015-08-03 16:01:00,86.5,86.5,29.67,SSW,210,8.0,11.0,100,0.00,,SCT060,0.00,VWS V14.01,2015-08-03 20:01:00,
2015-08-03 16:06:00,86.3,86.3,29.67,South,175,9.0,27.0,100,0.00,,SCT060,0.00,VWS V14.01,2015-08-03 20:06:00,
2015-08-03 16:11:00,86.1,86.1,29.67,SW,218,19.0,19.0,100,0.00,,SCT060,0.00,VWS V14.01,2015-08-03 20:11:00,
2015-08-03 16:16:00,85.9,85.9,29.66,SW,221,12.0,18.0,100,0.00,,SCT060,0.00,VWS V14.01,2015-08-03 20:16:00,
2015-08-03 16:21:00,85.9,85.9,29.66,SSW,207,14.0,22.0,100,0.00,,SCT060,0.00,VWS V14.01,2015-08-03 20:21:00,
2015-08-03 16:26:00,85.9,85.9,29.66,SW,224,11.0,14.0,100,0.00,,SCT060,0.00,VWS V14.01,2015-08-03 20:26:00,
2015-08-03 16:31:00,86.1,86.1,29.66,SW,218,20.0,20.0,100,0.00,,SCT060,0.00,VWS V14.01,2015-08-03 20:31:00,
2015-08-03 16:36:00,85.9,85.9,29.66,SW,214,6.0,11.0,100,0.00,,SCT060,0.00,VWS V14.01,2015-08-03 20:36:00,
2015-08-03 16:41:00,85.9,85.9,29.66,South,186,6.0,19.0,100,0.00,,CLR,0.00,VWS V14.01,2015-08-03 20:41:00,
2015-08-03 16:47:00,85.9,85.9,29.66,SSW,209,19.0,19.0,100,0.00,,CLR,0.00,VWS V14.01,2015-08-03 20:47:00,
2015-08-03 16:52:00,85.7,85.7,29.66,SSW,198,8.0,16.0,100,0.00,,CLR,0.00,VWS V14.01,2015-08-03 20:52:00,
2015-08-03 16:57:00,85.3,85.3,29.66,SSW,194,11.0,18.0,100,0.00,,CLR,0.00,VWS V14.01,2015-08-03 20:57:00,
2015-08-03 17:02:00,85.3,85.3,29.66,SSW,197,6.0,13.0,100,0.00,,CLR,0.00,VWS V14.01,2015-08-03 21:02:00,
2015-08-03 17:07:00,85.1,85.1,29.66,South,182,7.0,11.0,100,0.00,,CLR,0.00,VWS V14.01,2015-08-03 21:07:00,
2015-08-03 17:12:00,84.7,84.7,29.66,SW,216,20.0,20.0,100,0.00,,CLR,0.00,VWS V14.01,2015-08-03 21:12:00,
2015-08-03 17:17:00,84.5,84.5,29.66,SSW,196,13.0,18.0,100,0.00,,CLR,0.00,VWS V14.01,2015-08-03 21:17:00,
2015-08-03 17:22:00,84.7,84.7,29.66,SSW,192,10.0,11.0,100,0.00,,CLR,0.00,VWS V14.01,2015-08-03 21:22:00,
2015-08-03 17:27:00,84.9,84.9,29.66,SSW,208,9.0,12.0,100,0.00,,CLR,0.00,VWS V14.01,2015-08-03 21:27:00,
2015-08-03 17:32:00,85.3,85.3,29.65,SSW,210,9.0,16.0,100,0.00,,CLR,0.00,VWS V14.01,2015-08-03 21:32:00,
2015-08-03 17:37:00,85.3,85.3,29.65,SSW,195,19.0,21.0,100,0.00,,CLR,0.00,VWS V14.01,2015-08-03 21:37:00,
2015-08-03 17:42:00,84.9,84.9,29.65,SW,228,20.0,21.0,100,0.00,,CLR,0.00,VWS V14.01,2015-08-03 21:42:00,
2015-08-03 17:47:00,84.1,84.1,29.66,SSE,164,5.0,20.0,100,0.00,,CLR,0.00,VWS V14.01,2015-08-03 21:47:00,
2015-08-03 17:52:00,83.6,83.6,29.66,SSW,193,13.0,16.0,100,0.00,,CLR,0.00,VWS V14.01,2015-08-03 21:52:00,
2015-08-03 17:57:00,83.2,83.2,29.66,SSW,201,8.0,11.0,100,0.00,,CLR,0.00,VWS V14.01,2015-08-03 21:57:00,
2015-08-03 18:02:00,83.0,83.0,29.66,SSW,203,19.0,19.0,100,0.00,,CLR,0.00,VWS V14.01,2015-08-03 22:02:00,
2015-08-03 18:07:00,83.4,83.4,29.66,SSW,212,10.0,19.0,100,0.00,,CLR,0.00,VWS V14.01,2015-08-03 22:07:00,
2015-08-03 18:12:00,83.4,83.4,29.66,SW,221,5.0,10.0,100,0.00,,CLR,0.00,VWS V14.01,2015-08-03 22:12:00,
2015-08-03 18:17:00,83.0,83.0,29.66,South,176,8.0,23.0,100,0.00,,CLR,0.00,VWS V14.01,2015-08-03 22:17:00,
2015-08-03 18:22:00,82.6,82.6,29.66,SSW,210,14.0,19.0,100,0.00,,CLR,0.00,VWS V14.01,2015-08-03 22:22:00,
2015-08-03 18:27:00,82.4,82.4,29.66,SSW,197,16.0,18.0,100,0.00,,CLR,0.00,VWS V14.01,2015-08-03 22:27:00,
2015-08-03 18:32:00,82.4,82.4,29.65,SSE,150,9.0,12.0,100,0.00,,CLR,0.00,VWS V14.01,2015-08-03 22:32:00,
2015-08-03 18:37:00,82.0,82.0,29.65,South,188,8.0,18.0,100,0.00,,CLR,0.00,VWS V14.01,2015-08-03 22:37:00,
2015-08-03 18:42:00,81.8,81.8,29.65,South,186,7.0,14.0,100,0.00,,SCT060,0.00,VWS V14.01,2015-08-03 22:42:00,
2015-08-03 18:52:00,81.4,81.4,29.65,South,188,10.0,13.0,100,0.00,,SCT060,0.00,VWS V14.01,2015-08-03 22:52:00,
2015-08-03 18:57:00,81.2,81.2,29.65,South,179,10.0,16.0,100,0.00,,SCT060,0.00,VWS V14.01,2015-08-03 22:57:00,
2015-08-03 19:02:00,81.1,81.1,29.66,SW,222,8.0,11.0,100,0.00,,SCT060,0.00,VWS V14.01,2015-08-03 23:02:00,
2015-08-03 19:07:00,80.9,80.9,29.66,SW,234,7.0,10.0,100,0.00,,SCT060,0.00,VWS V14.01,2015-08-03 23:07:00,
2015-08-03 19:12:00,80.9,80.9,29.66,SSW,209,5.0,13.0,100,0.00,,SCT060,0.00,VWS V14.01,2015-08-03 23:12:00,
2015-08-03 19:22:00,80.5,80.5,29.66,SSW,200,4.0,9.0,100,0.00,,SCT060,0.00,VWS V14.01,2015-08-03 23:22:00,
2015-08-03 19:27:00,80.3,80.3,29.66,SSW,195,4.0,10.0,100,0.00,,SCT060,0.00,VWS V14.01,2015-08-03 23:27:00,
2015-08-03 19:32:00,80.1,80.1,29.67,SSW,200,7.0,9.0,100,0.00,,SCT060,0.00,VWS V14.01,2015-08-03 23:32:00,
2015-08-03 19:37:00,79.9,79.9,29.67,SSW,203,6.0,10.0,100,0.00,,SCT060,0.00,VWS V14.01,2015-08-03 23:37:00,
2015-08-03 19:42:00,79.8,79.8,29.67,South,169,8.0,10.0,100,0.00,,SCT060,0.00,VWS V14.01,2015-08-03 23:42:00,
2015-08-03 19:47:00,79.6,79.6,29.67,South,169,0.0,8.0,100,0.00,,SCT060,0.00,VWS V14.01,2015-08-03 23:47:00,
2015-08-03 19:53:00,79.4,79.4,29.67,South,186,4.0,6.0,100,0.00,,SCT060,0.00,VWS V14.01,2015-08-03 23:53:00,
2015-08-03 19:58:00,79.0,79.0,29.67,SSW,208,9.0,9.0,100,0.00,,SCT060,0.00,VWS V14.01,2015-08-03 23:58:00,
2015-08-03 20:03:00,78.8,78.8,29.68,SSW,198,4.0,9.0,100,0.00,,SCT060,0.00,VWS V14.01,2015-08-04 00:03:00,
2015-08-03 20:08:00,78.6,78.6,29.68,SSW,198,8.0,12.0,100,0.00,,SCT060,0.00,VWS V14.01,2015-08-04 00:08:00,
2015-08-03 20:13:00,78.6,78.6,29.68,SSE,167,6.0,6.0,100,0.00,,CLR,0.00,VWS V14.01,2015-08-04 00:13:00,
2015-08-03 20:18:00,78.5,78.5,29.67,SSW,195,3.0,11.0,100,0.00,,CLR,0.00,VWS V14.01,2015-08-04 00:18:00,
2015-08-03 20:23:00,78.3,78.3,29.67,South,191,6.0,8.0,100,0.00,,CLR,0.00,VWS V14.01,2015-08-04 00:23:00,
2015-08-03 20:28:00,78.1,78.1,29.67,South,172,6.0,8.0,100,0.00,,CLR,0.00,VWS V14.01,2015-08-04 00:28:00,
2015-08-03 20:33:00,78.1,78.1,29.68,South,185,5.0,6.0,100,0.00,,CLR,0.00,VWS V14.01,2015-08-04 00:33:00,
2015-08-03 20:38:00,77.9,77.9,29.68,SW,226,9.0,9.0,100,0.00,,CLR,0.00,VWS V14.01,2015-08-04 00:38:00,
2015-08-03 20:43:00,77.9,77.9,29.68,SSW,195,10.0,11.0,100,0.00,,CLR,0.00,VWS V14.01,2015-08-04 00:43:00,
2015-08-03 20:48:00,77.7,77.7,29.69,SSW,202,0.0,7.0,100,0.00,,CLR,0.00,VWS V14.01,2015-08-04 00:48:00,
2015-08-03 20:53:00,77.7,77.7,29.69,SSW,199,7.0,9.0,100,0.00,,CLR,0.00,VWS V14.01,2015-08-04 00:53:00,
2015-08-03 20:58:00,77.6,77.6,29.69,South,189,7.0,8.0,100,0.00,,CLR,0.00,VWS V14.01,2015-08-04 00:58:00,